DAL1671 KJFK-KRSW
Flight info
| Callsign | DAL1671 |
|---|---|
| Flight time | N/A |
| Altitude | 38000 |
| Route | DCT RBV Q430 COPES Q75 SLOJO Q103 CYNTA SHFTY6 |
| Aircraft | A319/M-SDE3FGHIRWY/LB1 |
Departure
| Time | 2026-05-07 13:38 |
|---|---|
| Airport | John F. Kennedy International Airport (KJFK) |
Arrival
| Time | N/A |
|---|---|
| Airport | Southwest Florida International Airport (KRSW) |
| Time | Latitude | Longitude | Altitude | Speed | Heading |
|---|---|---|---|---|---|
| 2026-05-07 13:20 | 40.63629 | -73.78131 | 25 ft | 0 kts | 83° |
| 2026-05-07 13:30 | 40.63628 | -73.78143 | 23 ft | 4 kts | 83° |
| 2026-05-07 13:30 | 40.63625 | -73.78177 | 26 ft | 4 kts | 86° |
| 2026-05-07 13:31 | 40.63625 | -73.78213 | 24 ft | 4 kts | 95° |
| 2026-05-07 13:31 | 40.63630 | -73.78246 | 23 ft | 4 kts | 127° |
| 2026-05-07 13:31 | 40.63641 | -73.78258 | 27 ft | 0 kts | 174° |
| 2026-05-07 13:33 | 40.63620 | -73.78255 | 25 ft | 5 kts | 174° |
| 2026-05-07 13:33 | 40.63574 | -73.78260 | 23 ft | 8 kts | 199° |
| 2026-05-07 13:33 | 40.63522 | -73.78296 | 27 ft | 9 kts | 210° |
| 2026-05-07 13:34 | 40.63458 | -73.78326 | 27 ft | 11 kts | 165° |
| 2026-05-07 13:34 | 40.63352 | -73.78109 | 24 ft | 18 kts | 119° |
| 2026-05-07 13:34 | 40.63331 | -73.77943 | 25 ft | 20 kts | 82° |
| 2026-05-07 13:35 | 40.63295 | -73.77772 | 27 ft | 21 kts | 122° |
| 2026-05-07 13:35 | 40.63217 | -73.77605 | 29 ft | 22 kts | 122° |
| 2026-05-07 13:35 | 40.63136 | -73.77432 | 29 ft | 23 kts | 121° |
| 2026-05-07 13:35 | 40.63058 | -73.77254 | 27 ft | 21 kts | 121° |
| 2026-05-07 13:36 | 40.62973 | -73.77098 | 24 ft | 20 kts | 156° |
| 2026-05-07 13:36 | 40.62898 | -73.77123 | 24 ft | 0 kts | 212° |
| 2026-05-07 13:36 | 40.62897 | -73.77123 | 24 ft | 0 kts | 212° |
| 2026-05-07 13:37 | 40.62879 | -73.77138 | 25 ft | 6 kts | 212° |
| 2026-05-07 13:37 | 40.62832 | -73.77181 | 24 ft | 11 kts | 227° |
| 2026-05-07 13:37 | 40.62845 | -73.77283 | 26 ft | 16 kts | 300° |
| 2026-05-07 13:37 | 40.63029 | -73.77688 | 31 ft | 88 kts | 301° |
| 2026-05-07 13:38 | 40.63469 | -73.78619 | 26 ft | 147 kts | 302° |
| 2026-05-07 13:38 | 40.64039 | -73.79892 | 400 ft | 165 kts | 302° |
| 2026-05-07 13:38 | 40.64549 | -73.81299 | 973 ft | 180 kts | 284° |
| 2026-05-07 13:38 | 40.64389 | -73.82997 | 1594 ft | 199 kts | 249° |
| 2026-05-07 13:39 | 40.63638 | -73.84585 | 2302 ft | 209 kts | 242° |
| 2026-05-07 13:39 | 40.62776 | -73.86188 | 2986 ft | 223 kts | 234° |
| 2026-05-07 13:39 | 40.61604 | -73.87678 | 3574 ft | 243 kts | 225° |
| 2026-05-07 13:39 | 40.60315 | -73.89037 | 4842 ft | 229 kts | 224° |
| 2026-05-07 13:40 | 40.59094 | -73.90342 | 5880 ft | 232 kts | 226° |
| 2026-05-07 13:40 | 40.57842 | -73.91797 | 6535 ft | 245 kts | 228° |
| 2026-05-07 13:40 | 40.56577 | -73.93317 | 7508 ft | 248 kts | 225° |
| 2026-05-07 13:40 | 40.55107 | -73.94540 | 8557 ft | 251 kts | 217° |
| 2026-05-07 13:41 | 40.53609 | -73.95698 | 9637 ft | 249 kts | 218° |
| 2026-05-07 13:41 | 40.52125 | -73.96894 | 10449 ft | 256 kts | 219° |
| 2026-05-07 13:41 | 40.50546 | -73.98198 | 10746 ft | 280 kts | 219° |
| 2026-05-07 13:41 | 40.48829 | -73.99621 | 11060 ft | 301 kts | 218° |
| 2026-05-07 13:42 | 40.47025 | -74.01102 | 11776 ft | 309 kts | 218° |
| 2026-05-07 13:42 | 40.45210 | -74.02577 | 12586 ft | 313 kts | 218° |
| 2026-05-07 13:42 | 40.43350 | -74.04081 | 13402 ft | 316 kts | 218° |
| 2026-05-07 13:42 | 40.41475 | -74.05598 | 14234 ft | 318 kts | 218° |
| 2026-05-07 13:43 | 40.39585 | -74.07132 | 15003 ft | 320 kts | 219° |
| 2026-05-07 13:43 | 40.37692 | -74.08671 | 15739 ft | 321 kts | 219° |
| 2026-05-07 13:43 | 40.35789 | -74.10217 | 16467 ft | 323 kts | 219° |
| 2026-05-07 13:43 | 40.33875 | -74.11770 | 17184 ft | 325 kts | 219° |
| 2026-05-07 13:44 | 40.31948 | -74.13333 | 17898 ft | 326 kts | 220° |
| 2026-05-07 13:44 | 40.30011 | -74.14907 | 18559 ft | 328 kts | 220° |
| 2026-05-07 13:44 | 40.28067 | -74.16487 | 19191 ft | 329 kts | 220° |
| 2026-05-07 13:44 | 40.26139 | -74.18097 | 19830 ft | 326 kts | 224° |
| 2026-05-07 13:45 | 40.24510 | -74.20099 | 20411 ft | 318 kts | 235° |
| 2026-05-07 13:45 | 40.23319 | -74.22516 | 21034 ft | 315 kts | 245° |
| 2026-05-07 13:45 | 40.22601 | -74.25218 | 21624 ft | 316 kts | 256° |
| 2026-05-07 13:45 | 40.22290 | -74.28084 | 22191 ft | 319 kts | 259° |
| 2026-05-07 13:46 | 40.22023 | -74.30970 | 22745 ft | 320 kts | 259° |
| 2026-05-07 13:46 | 40.21750 | -74.33875 | 23284 ft | 322 kts | 259° |
| 2026-05-07 13:46 | 40.21472 | -74.36789 | 23784 ft | 323 kts | 259° |
| 2026-05-07 13:46 | 40.21189 | -74.39706 | 24252 ft | 323 kts | 259° |
| 2026-05-07 13:47 | 40.20905 | -74.42624 | 24688 ft | 324 kts | 259° |
| 2026-05-07 13:47 | 40.20619 | -74.45548 | 25119 ft | 325 kts | 259° |
| 2026-05-07 13:47 | 40.20333 | -74.48479 | 25546 ft | 326 kts | 259° |
| 2026-05-07 13:47 | 40.20058 | -74.51426 | 25962 ft | 327 kts | 259° |
| 2026-05-07 13:48 | 40.19815 | -74.54395 | 26373 ft | 328 kts | 260° |
| 2026-05-07 13:48 | 40.19591 | -74.57375 | 26771 ft | 330 kts | 260° |
| 2026-05-07 13:48 | 40.19373 | -74.60328 | 27156 ft | 331 kts | 260° |
| 2026-05-07 13:48 | 40.19150 | -74.63329 | 27537 ft | 332 kts | 260° |
| 2026-05-07 13:49 | 40.18921 | -74.66337 | 27909 ft | 333 kts | 260° |
| 2026-05-07 13:49 | 40.18687 | -74.69359 | 28280 ft | 334 kts | 260° |
| 2026-05-07 13:49 | 40.18449 | -74.72385 | 28634 ft | 336 kts | 260° |
| 2026-05-07 13:49 | 40.18208 | -74.75430 | 28984 ft | 337 kts | 260° |
| 2026-05-07 13:50 | 40.17966 | -74.78478 | 29350 ft | 337 kts | 260° |
| 2026-05-07 13:50 | 40.17722 | -74.81516 | 29847 ft | 335 kts | 260° |
| 2026-05-07 13:50 | 40.17478 | -74.84531 | 30317 ft | 332 kts | 260° |
| 2026-05-07 13:50 | 40.17235 | -74.87517 | 30771 ft | 329 kts | 260° |
| 2026-05-07 13:51 | 40.16995 | -74.90481 | 31248 ft | 325 kts | 260° |
| 2026-05-07 13:51 | 40.16757 | -74.93404 | 31722 ft | 322 kts | 260° |
| 2026-05-07 13:51 | 40.16522 | -74.96298 | 32206 ft | 319 kts | 260° |
| 2026-05-07 13:51 | 40.16288 | -74.99168 | 32689 ft | 315 kts | 260° |
| 2026-05-07 13:52 | 40.16056 | -75.02009 | 33183 ft | 312 kts | 260° |
| 2026-05-07 13:52 | 40.15827 | -75.04811 | 33674 ft | 309 kts | 260° |
| 2026-05-07 13:52 | 40.15598 | -75.07594 | 34110 ft | 306 kts | 260° |
| 2026-05-07 13:52 | 40.15369 | -75.10355 | 34506 ft | 305 kts | 260° |
| 2026-05-07 13:53 | 40.15140 | -75.13098 | 34859 ft | 303 kts | 260° |
| 2026-05-07 13:53 | 40.14912 | -75.15833 | 35188 ft | 303 kts | 261° |
| 2026-05-07 13:53 | 40.14685 | -75.18567 | 35506 ft | 302 kts | 261° |
| 2026-05-07 13:53 | 40.14460 | -75.21256 | 35825 ft | 301 kts | 261° |
| 2026-05-07 13:54 | 40.14232 | -75.23975 | 36138 ft | 300 kts | 261° |
| 2026-05-07 13:54 | 40.14004 | -75.26684 | 36427 ft | 300 kts | 261° |
| 2026-05-07 13:54 | 40.13774 | -75.29388 | 36711 ft | 299 kts | 261° |
| 2026-05-07 13:54 | 40.13545 | -75.32093 | 36996 ft | 299 kts | 261° |
| 2026-05-07 13:55 | 40.13281 | -75.34776 | 37277 ft | 297 kts | 257° |
| 2026-05-07 13:55 | 40.12648 | -75.37341 | 37538 ft | 299 kts | 249° |
| 2026-05-07 13:55 | 40.11566 | -75.39688 | 37799 ft | 306 kts | 240° |
| 2026-05-07 13:55 | 40.10125 | -75.41775 | 37958 ft | 312 kts | 237° |
| 2026-05-07 13:56 | 40.08630 | -75.43844 | 38007 ft | 314 kts | 236° |
| 2026-05-07 13:56 | 40.05634 | -75.47982 | 37994 ft | 313 kts | 236° |
| 2026-05-07 13:57 | 40.02645 | -75.52122 | 37998 ft | 313 kts | 237° |
| 2026-05-07 13:57 | 39.99657 | -75.56264 | 37923 ft | 314 kts | 236° |
| 2026-05-07 13:58 | 39.96638 | -75.60425 | 37995 ft | 317 kts | 236° |
| 2026-05-07 13:58 | 39.93602 | -75.64612 | 37996 ft | 318 kts | 236° |
| 2026-05-07 13:59 | 39.90611 | -75.68829 | 38004 ft | 315 kts | 238° |
| 2026-05-07 13:59 | 39.87853 | -75.73245 | 37991 ft | 314 kts | 240° |
| 2026-05-07 14:00 | 39.85143 | -75.77690 | 37992 ft | 314 kts | 239° |
| 2026-05-07 14:00 | 39.82414 | -75.82101 | 38009 ft | 311 kts | 239° |
| 2026-05-07 14:01 | 39.80141 | -75.85736 | 38008 ft | 311 kts | 239° |
| 2026-05-07 14:01 | 39.77397 | -75.90102 | 38002 ft | 312 kts | 239° |
| 2026-05-07 14:02 | 39.74650 | -75.94468 | 38007 ft | 312 kts | 239° |
| 2026-05-07 14:02 | 39.71897 | -75.98833 | 38007 ft | 312 kts | 239° |
| 2026-05-07 14:03 | 39.69146 | -76.03205 | 38008 ft | 312 kts | 239° |
| 2026-05-07 14:03 | 39.66413 | -76.07540 | 38006 ft | 313 kts | 239° |
| 2026-05-07 14:04 | 39.63658 | -76.11903 | 37945 ft | 313 kts | 239° |
| 2026-05-07 14:04 | 39.60894 | -76.16266 | 38000 ft | 313 kts | 239° |
| 2026-05-07 14:05 | 39.58107 | -76.20618 | 38004 ft | 314 kts | 238° |
| 2026-05-07 14:05 | 39.55291 | -76.24942 | 38003 ft | 314 kts | 238° |
| 2026-05-07 14:06 | 39.52470 | -76.29260 | 38009 ft | 314 kts | 238° |
| 2026-05-07 14:06 | 39.49654 | -76.33578 | 38010 ft | 314 kts | 238° |
| 2026-05-07 14:07 | 39.46840 | -76.37898 | 38003 ft | 314 kts | 238° |
| 2026-05-07 14:07 | 39.43849 | -76.42083 | 37971 ft | 320 kts | 235° |
| 2026-05-07 14:08 | 39.40673 | -76.46161 | 37987 ft | 323 kts | 234° |
| 2026-05-07 14:08 | 39.37491 | -76.50247 | 37996 ft | 322 kts | 235° |
| 2026-05-07 14:09 | 39.34330 | -76.54355 | 38056 ft | 322 kts | 235° |
| 2026-05-07 14:09 | 39.31186 | -76.58468 | 38048 ft | 321 kts | 235° |
| 2026-05-07 14:10 | 39.28062 | -76.62532 | 38013 ft | 321 kts | 235° |
| 2026-05-07 14:10 | 39.24914 | -76.66621 | 37948 ft | 321 kts | 235° |
| 2026-05-07 14:11 | 39.21762 | -76.70719 | 37962 ft | 322 kts | 235° |
| 2026-05-07 14:11 | 39.18602 | -76.74824 | 37971 ft | 323 kts | 235° |
| 2026-05-07 14:12 | 39.15433 | -76.78931 | 38028 ft | 323 kts | 235° |
| 2026-05-07 14:12 | 39.12260 | -76.83040 | 38036 ft | 323 kts | 235° |
| 2026-05-07 14:13 | 39.09077 | -76.87143 | 38081 ft | 324 kts | 234° |
| 2026-05-07 14:13 | 39.05901 | -76.91232 | 37971 ft | 323 kts | 234° |
| 2026-05-07 14:14 | 39.02725 | -76.95324 | 37987 ft | 324 kts | 234° |
| 2026-05-07 14:14 | 38.99540 | -76.99432 | 37993 ft | 324 kts | 234° |
| 2026-05-07 14:15 | 38.96351 | -77.03540 | 38004 ft | 325 kts | 234° |
| 2026-05-07 14:15 | 38.93155 | -77.07657 | 37993 ft | 325 kts | 234° |
| 2026-05-07 14:16 | 38.89960 | -77.11769 | 37995 ft | 325 kts | 234° |
| 2026-05-07 14:16 | 38.86775 | -77.15851 | 37944 ft | 326 kts | 234° |
| 2026-05-07 14:17 | 38.83551 | -77.19978 | 37961 ft | 329 kts | 234° |
| 2026-05-07 14:17 | 38.80310 | -77.24131 | 38008 ft | 329 kts | 234° |
| 2026-05-07 14:18 | 38.77068 | -77.28273 | 38006 ft | 329 kts | 234° |
| 2026-05-07 14:18 | 38.73831 | -77.32400 | 38003 ft | 328 kts | 234° |
| 2026-05-07 14:19 | 38.70518 | -77.36445 | 38034 ft | 330 kts | 232° |
| 2026-05-07 14:19 | 38.67084 | -77.40365 | 38032 ft | 331 kts | 232° |
| 2026-05-07 14:20 | 38.63624 | -77.44299 | 37998 ft | 335 kts | 232° |
| 2026-05-07 14:20 | 38.60158 | -77.48280 | 38009 ft | 335 kts | 232° |
| 2026-05-07 14:21 | 38.56696 | -77.52270 | 38016 ft | 335 kts | 232° |
| 2026-05-07 14:21 | 38.53234 | -77.56257 | 38023 ft | 335 kts | 232° |
| 2026-05-07 14:22 | 38.49769 | -77.60233 | 38051 ft | 334 kts | 232° |
| 2026-05-07 14:22 | 38.46345 | -77.64147 | 37948 ft | 332 kts | 232° |
| 2026-05-07 14:23 | 38.42889 | -77.68117 | 38000 ft | 336 kts | 232° |
| 2026-05-07 14:23 | 38.39411 | -77.72103 | 38004 ft | 336 kts | 232° |
| 2026-05-07 14:24 | 38.35928 | -77.76085 | 38008 ft | 336 kts | 232° |
| 2026-05-07 14:24 | 38.32441 | -77.80061 | 38014 ft | 336 kts | 232° |
| 2026-05-07 14:25 | 38.28948 | -77.84038 | 38010 ft | 337 kts | 232° |
| 2026-05-07 14:25 | 38.25459 | -77.88012 | 37938 ft | 336 kts | 231° |
| 2026-05-07 14:26 | 38.21959 | -77.91998 | 37991 ft | 339 kts | 231° |
| 2026-05-07 14:26 | 38.18437 | -77.95991 | 38043 ft | 339 kts | 232° |
| 2026-05-07 14:27 | 38.14945 | -77.99948 | 38031 ft | 338 kts | 232° |
| 2026-05-07 14:27 | 38.11429 | -78.03929 | 38014 ft | 338 kts | 232° |
| 2026-05-07 14:28 | 38.07918 | -78.07897 | 38005 ft | 338 kts | 232° |
| 2026-05-07 14:28 | 38.04404 | -78.11865 | 37950 ft | 338 kts | 231° |
| 2026-05-07 14:29 | 38.00870 | -78.15817 | 37977 ft | 340 kts | 230° |
| 2026-05-07 14:29 | 37.97113 | -78.19530 | 37997 ft | 344 kts | 227° |
| 2026-05-07 14:30 | 37.93249 | -78.23122 | 37999 ft | 344 kts | 227° |
| 2026-05-07 14:30 | 37.89398 | -78.26729 | 38004 ft | 344 kts | 227° |
| 2026-05-07 14:31 | 37.85596 | -78.30345 | 38008 ft | 343 kts | 228° |
| 2026-05-07 14:31 | 37.81786 | -78.33980 | 38005 ft | 343 kts | 228° |
| 2026-05-07 14:32 | 37.77971 | -78.37613 | 38005 ft | 343 kts | 228° |
| 2026-05-07 14:32 | 37.74158 | -78.41241 | 38005 ft | 343 kts | 228° |
| 2026-05-07 14:33 | 37.70339 | -78.44859 | 37993 ft | 343 kts | 227° |
| 2026-05-07 14:33 | 37.66516 | -78.48476 | 37994 ft | 343 kts | 227° |
| 2026-05-07 14:34 | 37.62692 | -78.52093 | 37938 ft | 343 kts | 228° |
| 2026-05-07 14:34 | 37.58873 | -78.55703 | 37960 ft | 343 kts | 227° |
| 2026-05-07 14:35 | 37.55052 | -78.59298 | 37973 ft | 343 kts | 227° |
| 2026-05-07 14:35 | 37.51236 | -78.62889 | 37978 ft | 342 kts | 228° |
| 2026-05-07 14:36 | 37.47423 | -78.66485 | 37977 ft | 342 kts | 228° |
| 2026-05-07 14:36 | 37.43617 | -78.70064 | 38005 ft | 342 kts | 227° |
| 2026-05-07 14:37 | 37.39807 | -78.73637 | 37955 ft | 341 kts | 227° |
| 2026-05-07 14:37 | 37.34111 | -78.78960 | 37968 ft | 341 kts | 227° |
| 2026-05-07 14:38 | 37.30302 | -78.82525 | 37972 ft | 341 kts | 227° |
| 2026-05-07 14:38 | 37.26486 | -78.86095 | 37971 ft | 342 kts | 227° |
| 2026-05-07 14:39 | 37.22680 | -78.89652 | 37973 ft | 341 kts | 227° |
| 2026-05-07 14:39 | 37.18864 | -78.93210 | 37908 ft | 341 kts | 227° |
| 2026-05-07 14:40 | 37.15058 | -78.96747 | 37949 ft | 343 kts | 227° |
| 2026-05-07 14:40 | 37.11223 | -79.00310 | 37964 ft | 343 kts | 227° |
| 2026-05-07 14:41 | 37.07391 | -79.03868 | 37953 ft | 343 kts | 227° |
| 2026-05-07 14:41 | 37.03557 | -79.07421 | 37981 ft | 342 kts | 227° |
| 2026-05-07 14:42 | 36.99727 | -79.10965 | 37962 ft | 342 kts | 227° |
| 2026-05-07 14:42 | 36.95897 | -79.14498 | 37907 ft | 342 kts | 227° |
| 2026-05-07 14:43 | 36.92065 | -79.18039 | 37911 ft | 343 kts | 227° |
| 2026-05-07 14:43 | 36.88226 | -79.21586 | 37922 ft | 344 kts | 227° |
| 2026-05-07 14:44 | 36.84375 | -79.25133 | 37924 ft | 344 kts | 227° |
| 2026-05-07 14:44 | 36.80530 | -79.28673 | 37912 ft | 344 kts | 227° |
| 2026-05-07 14:45 | 36.76677 | -79.32216 | 37918 ft | 344 kts | 227° |
| 2026-05-07 14:45 | 36.72808 | -79.35761 | 37896 ft | 347 kts | 227° |
| 2026-05-07 14:46 | 36.68904 | -79.39334 | 37909 ft | 348 kts | 227° |
| 2026-05-07 14:46 | 36.65010 | -79.42901 | 37940 ft | 348 kts | 227° |
| 2026-05-07 14:47 | 36.61107 | -79.46466 | 37942 ft | 347 kts | 227° |
| 2026-05-07 14:47 | 36.57249 | -79.49984 | 37936 ft | 346 kts | 227° |
| 2026-05-07 14:48 | 36.53369 | -79.53531 | 37937 ft | 346 kts | 227° |
| 2026-05-07 14:48 | 36.49488 | -79.57071 | 37889 ft | 347 kts | 227° |
| 2026-05-07 14:49 | 36.45590 | -79.60609 | 37898 ft | 347 kts | 227° |
| 2026-05-07 14:49 | 36.41683 | -79.64155 | 37910 ft | 348 kts | 227° |
| 2026-05-07 14:50 | 36.37776 | -79.67700 | 37913 ft | 348 kts | 227° |
| 2026-05-07 14:50 | 36.34500 | -79.70668 | 37927 ft | 348 kts | 227° |
| 2026-05-07 14:51 | 36.30616 | -79.74186 | 37932 ft | 348 kts | 227° |
| 2026-05-07 14:51 | 36.26675 | -79.77745 | 37896 ft | 352 kts | 227° |
| 2026-05-07 14:52 | 36.22713 | -79.81316 | 37921 ft | 352 kts | 227° |
| 2026-05-07 14:52 | 36.18754 | -79.84879 | 37926 ft | 351 kts | 227° |
| 2026-05-07 14:53 | 36.14805 | -79.88426 | 37927 ft | 350 kts | 227° |
| 2026-05-07 14:53 | 36.10871 | -79.91971 | 37925 ft | 349 kts | 227° |
| 2026-05-07 14:54 | 36.06942 | -79.95512 | 37874 ft | 350 kts | 227° |
| 2026-05-07 14:54 | 36.02658 | -79.98600 | 37882 ft | 370 kts | 216° |
| 2026-05-07 14:55 | 35.97870 | -80.00962 | 37888 ft | 371 kts | 216° |
| 2026-05-07 14:55 | 35.93104 | -80.03309 | 37892 ft | 371 kts | 216° |
| 2026-05-07 14:56 | 35.88308 | -80.05685 | 37901 ft | 371 kts | 216° |